sensor_id;sensor_type;location;lat;lon;timestamp;P1;P2;P0
44350;PMS5003;62766;62.622;17.912;2023-03-23T00:00:18;0;0;
44350;PMS5003;62766;62.622;17.912;2023-03-23T00:02:47;0;0;
44350;PMS5003;62766;62.622;17.912;2023-03-23T00:05:15;0;0;
44350;PMS5003;62766;62.622;17.912;2023-03-23T00:07:43;0;0;
44350;PMS5003;62766;62.622;17.912;2023-03-23T00:10:12;0;0;
44350;PMS5003;62766;62.622;17.912;2023-03-23T00:12:40;0;0;
44350;PMS5003;62766;62.622;17.912;2023-03-23T00:15:09;1;0;
44350;PMS5003;62766;62.622;17.912;2023-03-23T00:17:37;0;0;
44350;PMS5003;62766;62.622;17.912;2023-03-23T00:20:08;0;0;
44350;PMS5003;62766;62.622;17.912;2023-03-23T00:22:36;0;0;
44350;PMS5003;62766;62.622;17.912;2023-03-23T00:25:04;0;0;
44350;PMS5003;62766;62.622;17.912;2023-03-23T00:27:33;0;0;
44350;PMS5003;62766;62.622;17.912;2023-03-23T00:30:01;0;0;
44350;PMS5003;62766;62.622;17.912;2023-03-23T00:32:31;0;0;
44350;PMS5003;62766;62.622;17.912;2023-03-23T00:35:00;0;0;
44350;PMS5003;62766;62.622;17.912;2023-03-23T00:37:29;1;0;
44350;PMS5003;62766;62.622;17.912;2023-03-23T00:39:59;0;0;
44350;PMS5003;62766;62.622;17.912;2023-03-23T00:42:27;0;0;
44350;PMS5003;62766;62.622;17.912;2023-03-23T00:44:56;0;0;
44350;PMS5003;62766;62.622;17.912;2023-03-23T00:47:24;0;0;
44350;PMS5003;62766;62.622;17.912;2023-03-23T00:49:53;1;1;
44350;PMS5003;62766;62.622;17.912;2023-03-23T00:52:21;0;0;
44350;PMS5003;62766;62.622;17.912;2023-03-23T00:54:50;1;0;
44350;PMS5003;62766;62.622;17.912;2023-03-23T00:57:18;0;0;
44350;PMS5003;62766;62.622;17.912;2023-03-23T00:59:46;0;0;
44350;PMS5003;62766;62.622;17.912;2023-03-23T01:02:15;0;0;
44350;PMS5003;62766;62.622;17.912;2023-03-23T01:04:43;0;0;
44350;PMS5003;62766;62.622;17.912;2023-03-23T01:07:12;2;0;
44350;PMS5003;62766;62.622;17.912;2023-03-23T01:09:40;1;0;
44350;PMS5003;62766;62.622;17.912;2023-03-23T01:12:09;1;1;
44350;PMS5003;62766;62.622;17.912;2023-03-23T01:14:37;0;0;
44350;PMS5003;62766;62.622;17.912;2023-03-23T01:17:06;0;0;
44350;PMS5003;62766;62.622;17.912;2023-03-23T01:19:34;0;0;
44350;PMS5003;62766;62.622;17.912;2023-03-23T01:22:03;0;0;
44350;PMS5003;62766;62.622;17.912;2023-03-23T01:24:31;0;0;
44350;PMS5003;62766;62.622;17.912;2023-03-23T01:27:00;1;1;
44350;PMS5003;62766;62.622;17.912;2023-03-23T01:29:28;0;0;
44350;PMS5003;62766;62.622;17.912;2023-03-23T01:31:58;0;0;
44350;PMS5003;62766;62.622;17.912;2023-03-23T01:34:27;0;0;
44350;PMS5003;62766;62.622;17.912;2023-03-23T01:36:55;0;0;
44350;PMS5003;62766;62.622;17.912;2023-03-23T01:39:24;0;0;
44350;PMS5003;62766;62.622;17.912;2023-03-23T01:41:52;0;0;
44350;PMS5003;62766;62.622;17.912;2023-03-23T01:49:00;0;0;
44350;PMS5003;62766;62.622;17.912;2023-03-23T01:51:30;0;0;
44350;PMS5003;62766;62.622;17.912;2023-03-23T01:54:01;0;0;
44350;PMS5003;62766;62.622;17.912;2023-03-23T01:56:35;0;0;
44350;PMS5003;62766;62.622;17.912;2023-03-23T01:59:08;0;0;
44350;PMS5003;62766;62.622;17.912;2023-03-23T02:01:37;0;0;
44350;PMS5003;62766;62.622;17.912;2023-03-23T02:04:05;1;1;
44350;PMS5003;62766;62.622;17.912;2023-03-23T02:06:34;0;0;
44350;PMS5003;62766;62.622;17.912;2023-03-23T02:09:02;0;0;
44350;PMS5003;62766;62.622;17.912;2023-03-23T02:11:31;0;0;
44350;PMS5003;62766;62.622;17.912;2023-03-23T02:14:01;0;0;
44350;PMS5003;62766;62.622;17.912;2023-03-23T02:16:33;0;0;
44350;PMS5003;62766;62.622;17.912;2023-03-23T02:19:09;0;0;
44350;PMS5003;62766;62.622;17.912;2023-03-23T02:21:57;0;0;
44350;PMS5003;62766;62.622;17.912;2023-03-23T02:24:43;0;0;
44350;PMS5003;62766;62.622;17.912;2023-03-23T02:27:26;0;0;
44350;PMS5003;62766;62.622;17.912;2023-03-23T02:30:09;0;0;
44350;PMS5003;62766;62.622;17.912;2023-03-23T02:32:55;0;0;
44350;PMS5003;62766;62.622;17.912;2023-03-23T02:35:53;0;0;
44350;PMS5003;62766;62.622;17.912;2023-03-23T02:38:28;0;0;
44350;PMS5003;62766;62.622;17.912;2023-03-23T02:41:00;0;0;
44350;PMS5003;62766;62.622;17.912;2023-03-23T02:43:33;0;0;
44350;PMS5003;62766;62.622;17.912;2023-03-23T02:46:08;0;0;
44350;PMS5003;62766;62.622;17.912;2023-03-23T02:48:38;0;0;
44350;PMS5003;62766;62.622;17.912;2023-03-23T02:51:10;0;0;
44350;PMS5003;62766;62.622;17.912;2023-03-23T02:53:41;0;0;
44350;PMS5003;62766;62.622;17.912;2023-03-23T02:56:10;0;0;
44350;PMS5003;62766;62.622;17.912;2023-03-23T02:58:42;0;0;
44350;PMS5003;62766;62.622;17.912;2023-03-23T03:01:15;0;0;
44350;PMS5003;62766;62.622;17.912;2023-03-23T03:04:16;1;1;
44350;PMS5003;62766;62.622;17.912;2023-03-23T03:06:50;2;2;
44350;PMS5003;62766;62.622;17.912;2023-03-23T03:09:29;1;1;
44350;PMS5003;62766;62.622;17.912;2023-03-23T03:12:07;1;1;
44350;PMS5003;62766;62.622;17.912;2023-03-23T03:14:41;0;0;
44350;PMS5003;62766;62.622;17.912;2023-03-23T03:17:19;1;1;
44350;PMS5003;62766;62.622;17.912;2023-03-23T03:19:51;0;0;
44350;PMS5003;62766;62.622;17.912;2023-03-23T03:22:24;0;0;
44350;PMS5003;62766;62.622;17.912;2023-03-23T03:24:54;0;0;
44350;PMS5003;62766;62.622;17.912;2023-03-23T03:27:26;1;1;
44350;PMS5003;62766;62.622;17.912;2023-03-23T03:29:56;1;1;
44350;PMS5003;62766;62.622;17.912;2023-03-23T03:32:29;1;0;
44350;PMS5003;62766;62.622;17.912;2023-03-23T03:35:05;0;0;
44350;PMS5003;62766;62.622;17.912;2023-03-23T03:37:36;0;0;
44350;PMS5003;62766;62.622;17.912;2023-03-23T03:40:08;0;0;
44350;PMS5003;62766;62.622;17.912;2023-03-23T03:42:40;0;0;
44350;PMS5003;62766;62.622;17.912;2023-03-23T03:45:10;0;0;
44350;PMS5003;62766;62.622;17.912;2023-03-23T03:47:40;3;2;
44350;PMS5003;62766;62.622;17.912;2023-03-23T03:50:08;4;4;
44350;PMS5003;62766;62.622;17.912;2023-03-23T03:52:37;4;4;
44350;PMS5003;62766;62.622;17.912;2023-03-23T03:55:06;4;4;
44350;PMS5003;62766;62.622;17.912;2023-03-23T03:57:36;3;3;
44350;PMS5003;62766;62.622;17.912;2023-03-23T04:00:07;2;2;
44350;PMS5003;62766;62.622;17.912;2023-03-23T04:02:36;3;3;
44350;PMS5003;62766;62.622;17.912;2023-03-23T04:05:05;3;3;
44350;PMS5003;62766;62.622;17.912;2023-03-23T04:07:35;5;3;
44350;PMS5003;62766;62.622;17.912;2023-03-23T04:10:06;5;3;
44350;PMS5003;62766;62.622;17.912;2023-03-23T04:12:35;3;3;
44350;PMS5003;62766;62.622;17.912;2023-03-23T04:15:04;2;2;
44350;PMS5003;62766;62.622;17.912;2023-03-23T04:17:34;2;2;
44350;PMS5003;62766;62.622;17.912;2023-03-23T04:20:03;6;5;
44350;PMS5003;62766;62.622;17.912;2023-03-23T04:22:33;18;16;
44350;PMS5003;62766;62.622;17.912;2023-03-23T04:25:02;20;20;
44350;PMS5003;62766;62.622;17.912;2023-03-23T04:27:30;14;14;
44350;PMS5003;62766;62.622;17.912;2023-03-23T04:30:00;9;9;
44350;PMS5003;62766;62.622;17.912;2023-03-23T04:32:29;12;12;
44350;PMS5003;62766;62.622;17.912;2023-03-23T04:34:58;5;4;
44350;PMS5003;62766;62.622;17.912;2023-03-23T04:37:27;4;2;
44350;PMS5003;62766;62.622;17.912;2023-03-23T04:39:57;1;1;
44350;PMS5003;62766;62.622;17.912;2023-03-23T04:42:27;0;0;
44350;PMS5003;62766;62.622;17.912;2023-03-23T04:44:56;1;1;
44350;PMS5003;62766;62.622;17.912;2023-03-23T04:47:25;0;0;
44350;PMS5003;62766;62.622;17.912;2023-03-23T04:49:55;0;0;
44350;PMS5003;62766;62.622;17.912;2023-03-23T04:52:24;1;1;
44350;PMS5003;62766;62.622;17.912;2023-03-23T04:54:51;0;0;
44350;PMS5003;62766;62.622;17.912;2023-03-23T04:57:20;2;1;
44350;PMS5003;62766;62.622;17.912;2023-03-23T04:59:48;1;1;
44350;PMS5003;62766;62.622;17.912;2023-03-23T05:03:33;1;1;
44350;PMS5003;62766;62.622;17.912;2023-03-23T05:06:01;0;0;
44350;PMS5003;62766;62.622;17.912;2023-03-23T05:08:30;0;0;
44350;PMS5003;62766;62.622;17.912;2023-03-23T05:10:59;0;0;
44350;PMS5003;62766;62.622;17.912;2023-03-23T05:13:28;0;0;
44350;PMS5003;62766;62.622;17.912;2023-03-23T05:15:57;0;0;
44350;PMS5003;62766;62.622;17.912;2023-03-23T05:18:25;0;0;
44350;PMS5003;62766;62.622;17.912;2023-03-23T05:20:54;0;0;
44350;PMS5003;62766;62.622;17.912;2023-03-23T05:23:22;1;1;
44350;PMS5003;62766;62.622;17.912;2023-03-23T05:25:52;0;0;
44350;PMS5003;62766;62.622;17.912;2023-03-23T05:28:21;0;0;
44350;PMS5003;62766;62.622;17.912;2023-03-23T05:30:49;0;0;
44350;PMS5003;62766;62.622;17.912;2023-03-23T05:33:18;0;0;
44350;PMS5003;62766;62.622;17.912;2023-03-23T05:35:47;0;0;
44350;PMS5003;62766;62.622;17.912;2023-03-23T05:38:15;0;0;
44350;PMS5003;62766;62.622;17.912;2023-03-23T05:40:43;0;0;
44350;PMS5003;62766;62.622;17.912;2023-03-23T05:43:12;0;0;
44350;PMS5003;62766;62.622;17.912;2023-03-23T05:45:40;0;0;
44350;PMS5003;62766;62.622;17.912;2023-03-23T05:48:09;1;1;
44350;PMS5003;62766;62.622;17.912;2023-03-23T05:50:37;1;1;
44350;PMS5003;62766;62.622;17.912;2023-03-23T05:53:06;1;1;
44350;PMS5003;62766;62.622;17.912;2023-03-23T05:55:34;2;2;
44350;PMS5003;62766;62.622;17.912;2023-03-23T05:58:03;1;1;
44350;PMS5003;62766;62.622;17.912;2023-03-23T06:00:32;1;1;
44350;PMS5003;62766;62.622;17.912;2023-03-23T06:03:01;2;2;
44350;PMS5003;62766;62.622;17.912;2023-03-23T06:05:30;1;1;
44350;PMS5003;62766;62.622;17.912;2023-03-23T06:08:00;1;1;
44350;PMS5003;62766;62.622;17.912;2023-03-23T06:10:28;2;1;
44350;PMS5003;62766;62.622;17.912;2023-03-23T06:12:57;0;0;
44350;PMS5003;62766;62.622;17.912;2023-03-23T06:15:26;1;1;
44350;PMS5003;62766;62.622;17.912;2023-03-23T06:17:54;0;0;
44350;PMS5003;62766;62.622;17.912;2023-03-23T06:20:22;0;0;
44350;PMS5003;62766;62.622;17.912;2023-03-23T06:22:51;0;0;
44350;PMS5003;62766;62.622;17.912;2023-03-23T06:25:19;0;0;
44350;PMS5003;62766;62.622;17.912;2023-03-23T06:27:48;0;0;
44350;PMS5003;62766;62.622;17.912;2023-03-23T06:30:16;1;1;
44350;PMS5003;62766;62.622;17.912;2023-03-23T06:32:45;2;0;
44350;PMS5003;62766;62.622;17.912;2023-03-23T06:35:13;1;1;
44350;PMS5003;62766;62.622;17.912;2023-03-23T06:37:43;1;1;
44350;PMS5003;62766;62.622;17.912;2023-03-23T06:40:12;1;1;
44350;PMS5003;62766;62.622;17.912;2023-03-23T06:42:40;0;0;
44350;PMS5003;62766;62.622;17.912;2023-03-23T06:45:09;0;0;
44350;PMS5003;62766;62.622;17.912;2023-03-23T06:47:39;0;0;
44350;PMS5003;62766;62.622;17.912;2023-03-23T06:50:08;1;1;
44350;PMS5003;62766;62.622;17.912;2023-03-23T06:52:36;0;0;
44350;PMS5003;62766;62.622;17.912;2023-03-23T06:55:04;2;1;
44350;PMS5003;62766;62.622;17.912;2023-03-23T06:57:33;3;2;
44350;PMS5003;62766;62.622;17.912;2023-03-23T07:00:01;1;1;
44350;PMS5003;62766;62.622;17.912;2023-03-23T07:02:30;1;1;
44350;PMS5003;62766;62.622;17.912;2023-03-23T07:04:58;1;1;
44350;PMS5003;62766;62.622;17.912;2023-03-23T07:07:26;2;2;
44350;PMS5003;62766;62.622;17.912;2023-03-23T07:09:55;2;2;
44350;PMS5003;62766;62.622;17.912;2023-03-23T07:12:23;1;1;
44350;PMS5003;62766;62.622;17.912;2023-03-23T07:14:52;2;2;
44350;PMS5003;62766;62.622;17.912;2023-03-23T07:17:20;0;0;
44350;PMS5003;62766;62.622;17.912;2023-03-23T07:19:49;0;0;
44350;PMS5003;62766;62.622;17.912;2023-03-23T07:22:17;0;0;
44350;PMS5003;62766;62.622;17.912;2023-03-23T07:24:46;1;1;
44350;PMS5003;62766;62.622;17.912;2023-03-23T07:27:14;0;0;
44350;PMS5003;62766;62.622;17.912;2023-03-23T07:29:42;0;0;
44350;PMS5003;62766;62.622;17.912;2023-03-23T07:32:11;0;0;
44350;PMS5003;62766;62.622;17.912;2023-03-23T07:34:39;0;0;
44350;PMS5003;62766;62.622;17.912;2023-03-23T07:37:08;0;0;
44350;PMS5003;62766;62.622;17.912;2023-03-23T07:39:36;0;0;
44350;PMS5003;62766;62.622;17.912;2023-03-23T07:42:05;0;0;
44350;PMS5003;62766;62.622;17.912;2023-03-23T07:44:33;2;0;
44350;PMS5003;62766;62.622;17.912;2023-03-23T07:47:02;0;0;
44350;PMS5003;62766;62.622;17.912;2023-03-23T07:49:30;0;0;
44350;PMS5003;62766;62.622;17.912;2023-03-23T07:52:00;0;0;
44350;PMS5003;62766;62.622;17.912;2023-03-23T07:54:29;0;0;
44350;PMS5003;62766;62.622;17.912;2023-03-23T07:56:57;0;0;
44350;PMS5003;62766;62.622;17.912;2023-03-23T07:59:26;0;0;
44350;PMS5003;62766;62.622;17.912;2023-03-23T08:01:54;0;0;
44350;PMS5003;62766;62.622;17.912;2023-03-23T08:04:22;1;1;
44350;PMS5003;62766;62.622;17.912;2023-03-23T08:06:51;0;0;
44350;PMS5003;62766;62.622;17.912;2023-03-23T08:09:19;3;1;
44350;PMS5003;62766;62.622;17.912;2023-03-23T08:11:48;0;0;
44350;PMS5003;62766;62.622;17.912;2023-03-23T08:14:16;0;0;
44350;PMS5003;62766;62.622;17.912;2023-03-23T08:16:45;0;0;
44350;PMS5003;62766;62.622;17.912;2023-03-23T08:19:13;0;0;
44350;PMS5003;62766;62.622;17.912;2023-03-23T08:21:41;0;0;
44350;PMS5003;62766;62.622;17.912;2023-03-23T08:24:10;0;0;
44350;PMS5003;62766;62.622;17.912;2023-03-23T08:26:38;1;1;
44350;PMS5003;62766;62.622;17.912;2023-03-23T08:29:07;0;0;
44350;PMS5003;62766;62.622;17.912;2023-03-23T08:31:35;0;0;
44350;PMS5003;62766;62.622;17.912;2023-03-23T08:34:05;1;1;
44350;PMS5003;62766;62.622;17.912;2023-03-23T08:36:34;1;1;
44350;PMS5003;62766;62.622;17.912;2023-03-23T08:39:04;2;2;
44350;PMS5003;62766;62.622;17.912;2023-03-23T08:41:33;3;3;
44350;PMS5003;62766;62.622;17.912;2023-03-23T08:44:01;4;3;
44350;PMS5003;62766;62.622;17.912;2023-03-23T08:46:30;2;2;
44350;PMS5003;62766;62.622;17.912;2023-03-23T08:48:58;2;0;
44350;PMS5003;62766;62.622;17.912;2023-03-23T08:51:26;0;0;
44350;PMS5003;62766;62.622;17.912;2023-03-23T08:53:55;0;0;
44350;PMS5003;62766;62.622;17.912;2023-03-23T08:56:23;0;0;
44350;PMS5003;62766;62.622;17.912;2023-03-23T08:58:52;0;0;
44350;PMS5003;62766;62.622;17.912;2023-03-23T09:01:21;0;0;
44350;PMS5003;62766;62.622;17.912;2023-03-23T09:03:49;1;1;
44350;PMS5003;62766;62.622;17.912;2023-03-23T09:06:17;1;1;
44350;PMS5003;62766;62.622;17.912;2023-03-23T09:08:46;0;0;
44350;PMS5003;62766;62.622;17.912;2023-03-23T09:11:14;1;1;
44350;PMS5003;62766;62.622;17.912;2023-03-23T09:13:43;1;1;
44350;PMS5003;62766;62.622;17.912;2023-03-23T09:16:11;1;1;
44350;PMS5003;62766;62.622;17.912;2023-03-23T09:18:40;0;0;
44350;PMS5003;62766;62.622;17.912;2023-03-23T09:21:08;0;0;
44350;PMS5003;62766;62.622;17.912;2023-03-23T09:23:36;0;0;
44350;PMS5003;62766;62.622;17.912;2023-03-23T09:26:05;0;0;
44350;PMS5003;62766;62.622;17.912;2023-03-23T09:28:33;0;0;
44350;PMS5003;62766;62.622;17.912;2023-03-23T09:31:02;2;0;
44350;PMS5003;62766;62.622;17.912;2023-03-23T09:33:30;0;0;
44350;PMS5003;62766;62.622;17.912;2023-03-23T09:36:00;0;0;
44350;PMS5003;62766;62.622;17.912;2023-03-23T09:38:29;0;0;
44350;PMS5003;62766;62.622;17.912;2023-03-23T09:41:00;0;0;
44350;PMS5003;62766;62.622;17.912;2023-03-23T09:43:36;0;0;
44350;PMS5003;62766;62.622;17.912;2023-03-23T09:46:21;0;0;
44350;PMS5003;62766;62.622;17.912;2023-03-23T09:49:02;1;1;
44350;PMS5003;62766;62.622;17.912;2023-03-23T09:51:40;0;0;
44350;PMS5003;62766;62.622;17.912;2023-03-23T09:54:14;0;0;
44350;PMS5003;62766;62.622;17.912;2023-03-23T09:56:47;0;0;
44350;PMS5003;62766;62.622;17.912;2023-03-23T09:59:19;2;2;
44350;PMS5003;62766;62.622;17.912;2023-03-23T10:01:51;0;0;
44350;PMS5003;62766;62.622;17.912;2023-03-23T10:04:26;0;0;
44350;PMS5003;62766;62.622;17.912;2023-03-23T10:07:13;1;1;
44350;PMS5003;62766;62.622;17.912;2023-03-23T10:09:45;0;0;
44350;PMS5003;62766;62.622;17.912;2023-03-23T10:12:19;1;1;
44350;PMS5003;62766;62.622;17.912;2023-03-23T10:14:58;0;0;
44350;PMS5003;62766;62.622;17.912;2023-03-23T10:17:39;0;0;
44350;PMS5003;62766;62.622;17.912;2023-03-23T10:20:20;1;0;
44350;PMS5003;62766;62.622;17.912;2023-03-23T10:22:58;0;0;
44350;PMS5003;62766;62.622;17.912;2023-03-23T10:25:41;0;0;
44350;PMS5003;62766;62.622;17.912;2023-03-23T10:28:17;0;0;
44350;PMS5003;62766;62.622;17.912;2023-03-23T10:30:49;0;0;
44350;PMS5003;62766;62.622;17.912;2023-03-23T10:33:23;2;0;
44350;PMS5003;62766;62.622;17.912;2023-03-23T10:35:59;0;0;
44350;PMS5003;62766;62.622;17.912;2023-03-23T10:38:34;0;0;
44350;PMS5003;62766;62.622;17.912;2023-03-23T10:41:06;0;0;
44350;PMS5003;62766;62.622;17.912;2023-03-23T10:43:39;0;0;
44350;PMS5003;62766;62.622;17.912;2023-03-23T10:46:11;0;0;
44350;PMS5003;62766;62.622;17.912;2023-03-23T10:48:48;1;1;
44350;PMS5003;62766;62.622;17.912;2023-03-23T10:51:23;0;0;
44350;PMS5003;62766;62.622;17.912;2023-03-23T10:54:00;0;0;
44350;PMS5003;62766;62.622;17.912;2023-03-23T10:56:34;0;0;
44350;PMS5003;62766;62.622;17.912;2023-03-23T10:59:12;1;1;
44350;PMS5003;62766;62.622;17.912;2023-03-23T11:03:40;1;1;
44350;PMS5003;62766;62.622;17.912;2023-03-23T11:06:11;0;0;
44350;PMS5003;62766;62.622;17.912;2023-03-23T11:08:48;0;0;
44350;PMS5003;62766;62.622;17.912;2023-03-23T11:11:20;1;1;
44350;PMS5003;62766;62.622;17.912;2023-03-23T11:13:56;0;0;
44350;PMS5003;62766;62.622;17.912;2023-03-23T11:16:27;0;0;
44350;PMS5003;62766;62.622;17.912;2023-03-23T11:18:57;1;1;
44350;PMS5003;62766;62.622;17.912;2023-03-23T11:21:27;0;0;
44350;PMS5003;62766;62.622;17.912;2023-03-23T11:23:57;2;0;
44350;PMS5003;62766;62.622;17.912;2023-03-23T11:26:28;0;0;
44350;PMS5003;62766;62.622;17.912;2023-03-23T11:28:58;1;1;
44350;PMS5003;62766;62.622;17.912;2023-03-23T11:31:30;1;1;
44350;PMS5003;62766;62.622;17.912;2023-03-23T11:34:01;2;1;
44350;PMS5003;62766;62.622;17.912;2023-03-23T11:36:33;0;0;
44350;PMS5003;62766;62.622;17.912;2023-03-23T11:39:18;1;1;
44350;PMS5003;62766;62.622;17.912;2023-03-23T11:41:48;0;0;
44350;PMS5003;62766;62.622;17.912;2023-03-23T11:44:17;1;1;
44350;PMS5003;62766;62.622;17.912;2023-03-23T11:46:47;1;1;
44350;PMS5003;62766;62.622;17.912;2023-03-23T11:49:25;2;1;
44350;PMS5003;62766;62.622;17.912;2023-03-23T11:52:05;1;1;
44350;PMS5003;62766;62.622;17.912;2023-03-23T11:54:42;0;0;
44350;PMS5003;62766;62.622;17.912;2023-03-23T11:57:14;1;0;
44350;PMS5003;62766;62.622;17.912;2023-03-23T11:59:43;0;0;
44350;PMS5003;62766;62.622;17.912;2023-03-23T12:02:19;1;1;
44350;PMS5003;62766;62.622;17.912;2023-03-23T12:05:11;1;1;
44350;PMS5003;62766;62.622;17.912;2023-03-23T12:08:21;1;1;
44350;PMS5003;62766;62.622;17.912;2023-03-23T12:11:01;1;1;
44350;PMS5003;62766;62.622;17.912;2023-03-23T12:13:44;1;1;
44350;PMS5003;62766;62.622;17.912;2023-03-23T12:16:25;2;2;
44350;PMS5003;62766;62.622;17.912;2023-03-23T12:19:04;1;1;
44350;PMS5003;62766;62.622;17.912;2023-03-23T12:21:39;2;2;
44350;PMS5003;62766;62.622;17.912;2023-03-23T12:24:19;1;1;
44350;PMS5003;62766;62.622;17.912;2023-03-23T12:27:00;0;0;
44350;PMS5003;62766;62.622;17.912;2023-03-23T12:29:38;1;1;
44350;PMS5003;62766;62.622;17.912;2023-03-23T12:32:23;0;0;
44350;PMS5003;62766;62.622;17.912;2023-03-23T12:35:01;1;1;
44350;PMS5003;62766;62.622;17.912;2023-03-23T12:37:45;0;0;
44350;PMS5003;62766;62.622;17.912;2023-03-23T12:40:23;1;1;
44350;PMS5003;62766;62.622;17.912;2023-03-23T12:43:04;0;0;
44350;PMS5003;62766;62.622;17.912;2023-03-23T12:45:50;4;2;
44350;PMS5003;62766;62.622;17.912;2023-03-23T12:48:28;1;1;
44350;PMS5003;62766;62.622;17.912;2023-03-23T12:51:02;1;1;
44350;PMS5003;62766;62.622;17.912;2023-03-23T12:53:48;2;2;
44350;PMS5003;62766;62.622;17.912;2023-03-23T12:56:23;1;1;
44350;PMS5003;62766;62.622;17.912;2023-03-23T12:58:58;1;1;
44350;PMS5003;62766;62.622;17.912;2023-03-23T13:01:32;2;2;
44350;PMS5003;62766;62.622;17.912;2023-03-23T13:04:04;1;1;
44350;PMS5003;62766;62.622;17.912;2023-03-23T13:06:37;1;1;
44350;PMS5003;62766;62.622;17.912;2023-03-23T13:09:09;3;1;
44350;PMS5003;62766;62.622;17.912;2023-03-23T13:11:43;2;1;
44350;PMS5003;62766;62.622;17.912;2023-03-23T13:14:16;0;0;
44350;PMS5003;62766;62.622;17.912;2023-03-23T13:16:54;3;1;
44350;PMS5003;62766;62.622;17.912;2023-03-23T13:19:34;2;2;
44350;PMS5003;62766;62.622;17.912;2023-03-23T13:22:13;1;1;
44350;PMS5003;62766;62.622;17.912;2023-03-23T13:24:49;1;1;
44350;PMS5003;62766;62.622;17.912;2023-03-23T13:27:23;2;2;
44350;PMS5003;62766;62.622;17.912;2023-03-23T13:29:53;1;1;
44350;PMS5003;62766;62.622;17.912;2023-03-23T13:32:22;1;1;
44350;PMS5003;62766;62.622;17.912;2023-03-23T13:35:00;3;1;
44350;PMS5003;62766;62.622;17.912;2023-03-23T13:37:30;2;2;
44350;PMS5003;62766;62.622;17.912;2023-03-23T13:40:11;2;2;
44350;PMS5003;62766;62.622;17.912;2023-03-23T13:42:48;1;1;
44350;PMS5003;62766;62.622;17.912;2023-03-23T13:45:19;2;2;
44350;PMS5003;62766;62.622;17.912;2023-03-23T13:47:49;2;2;
44350;PMS5003;62766;62.622;17.912;2023-03-23T13:50:30;2;2;
44350;PMS5003;62766;62.622;17.912;2023-03-23T13:52:59;2;2;
44350;PMS5003;62766;62.622;17.912;2023-03-23T13:55:36;2;2;
44350;PMS5003;62766;62.622;17.912;2023-03-23T13:58:10;3;1;
44350;PMS5003;62766;62.622;17.912;2023-03-23T14:00:49;1;1;
44350;PMS5003;62766;62.622;17.912;2023-03-23T14:03:34;2;2;
44350;PMS5003;62766;62.622;17.912;2023-03-23T14:06:05;1;1;
44350;PMS5003;62766;62.622;17.912;2023-03-23T14:08:39;3;1;
44350;PMS5003;62766;62.622;17.912;2023-03-23T14:11:12;1;1;
44350;PMS5003;62766;62.622;17.912;2023-03-23T14:13:45;2;1;
44350;PMS5003;62766;62.622;17.912;2023-03-23T14:16:20;5;3;
44350;PMS5003;62766;62.622;17.912;2023-03-23T14:18:51;2;2;
44350;PMS5003;62766;62.622;17.912;2023-03-23T14:21:23;1;1;
44350;PMS5003;62766;62.622;17.912;2023-03-23T14:24:00;2;2;
44350;PMS5003;62766;62.622;17.912;2023-03-23T14:26:29;2;2;
44350;PMS5003;62766;62.622;17.912;2023-03-23T14:29:03;2;2;
44350;PMS5003;62766;62.622;17.912;2023-03-23T14:31:34;1;1;
44350;PMS5003;62766;62.622;17.912;2023-03-23T14:34:04;4;1;
44350;PMS5003;62766;62.622;17.912;2023-03-23T14:36:41;3;3;
44350;PMS5003;62766;62.622;17.912;2023-03-23T14:39:14;1;1;
44350;PMS5003;62766;62.622;17.912;2023-03-23T14:41:48;2;2;
44350;PMS5003;62766;62.622;17.912;2023-03-23T14:44:21;1;1;
44350;PMS5003;62766;62.622;17.912;2023-03-23T14:46:52;2;2;
44350;PMS5003;62766;62.622;17.912;2023-03-23T14:49:24;2;2;
44350;PMS5003;62766;62.622;17.912;2023-03-23T14:52:01;7;4;
44350;PMS5003;62766;62.622;17.912;2023-03-23T14:54:32;2;2;
44350;PMS5003;62766;62.622;17.912;2023-03-23T14:57:03;3;1;
44350;PMS5003;62766;62.622;17.912;2023-03-23T14:59:39;3;3;
44350;PMS5003;62766;62.622;17.912;2023-03-23T15:02:10;4;4;
44350;PMS5003;62766;62.622;17.912;2023-03-23T15:04:42;4;4;
44350;PMS5003;62766;62.622;17.912;2023-03-23T15:07:14;9;9;
44350;PMS5003;62766;62.622;17.912;2023-03-23T15:09:45;2;2;
44350;PMS5003;62766;62.622;17.912;2023-03-23T15:12:19;6;5;
44350;PMS5003;62766;62.622;17.912;2023-03-23T15:14:51;7;5;
44350;PMS5003;62766;62.622;17.912;2023-03-23T15:17:23;3;3;
44350;PMS5003;62766;62.622;17.912;2023-03-23T15:19:53;4;4;
44350;PMS5003;62766;62.622;17.912;2023-03-23T15:22:23;3;3;
44350;PMS5003;62766;62.622;17.912;2023-03-23T15:24:53;3;2;
44350;PMS5003;62766;62.622;17.912;2023-03-23T15:27:32;4;4;
44350;PMS5003;62766;62.622;17.912;2023-03-23T15:30:12;1;1;
44350;PMS5003;62766;62.622;17.912;2023-03-23T15:32:44;3;3;
44350;PMS5003;62766;62.622;17.912;2023-03-23T15:35:15;2;2;
44350;PMS5003;62766;62.622;17.912;2023-03-23T15:37:46;1;1;
44350;PMS5003;62766;62.622;17.912;2023-03-23T15:40:16;3;3;
44350;PMS5003;62766;62.622;17.912;2023-03-23T15:42:48;4;4;
44350;PMS5003;62766;62.622;17.912;2023-03-23T15:45:21;4;4;
44350;PMS5003;62766;62.622;17.912;2023-03-23T15:47:54;9;5;
44350;PMS5003;62766;62.622;17.912;2023-03-23T15:50:33;3;3;
44350;PMS5003;62766;62.622;17.912;2023-03-23T15:53:10;3;3;
44350;PMS5003;62766;62.622;17.912;2023-03-23T15:55:47;4;4;
44350;PMS5003;62766;62.622;17.912;2023-03-23T15:58:15;5;3;
44350;PMS5003;62766;62.622;17.912;2023-03-23T16:00:44;4;3;
44350;PMS5003;62766;62.622;17.912;2023-03-23T16:03:16;5;5;
44350;PMS5003;62766;62.622;17.912;2023-03-23T16:05:48;4;4;
44350;PMS5003;62766;62.622;17.912;2023-03-23T16:08:16;4;4;
44350;PMS5003;62766;62.622;17.912;2023-03-23T16:10:45;4;4;
44350;PMS5003;62766;62.622;17.912;2023-03-23T16:13:15;4;4;
44350;PMS5003;62766;62.622;17.912;2023-03-23T16:15:45;3;3;
44350;PMS5003;62766;62.622;17.912;2023-03-23T16:18:16;5;5;
44350;PMS5003;62766;62.622;17.912;2023-03-23T16:20:46;3;3;
44350;PMS5003;62766;62.622;17.912;2023-03-23T16:23:16;5;5;
44350;PMS5003;62766;62.622;17.912;2023-03-23T16:25:45;3;3;
44350;PMS5003;62766;62.622;17.912;2023-03-23T16:28:13;6;6;
44350;PMS5003;62766;62.622;17.912;2023-03-23T16:30:42;6;6;
44350;PMS5003;62766;62.622;17.912;2023-03-23T16:33:12;4;4;
44350;PMS5003;62766;62.622;17.912;2023-03-23T16:35:41;3;3;
44350;PMS5003;62766;62.622;17.912;2023-03-23T16:38:10;5;3;
44350;PMS5003;62766;62.622;17.912;2023-03-23T16:40:39;4;3;
44350;PMS5003;62766;62.622;17.912;2023-03-23T16:43:08;4;4;
44350;PMS5003;62766;62.622;17.912;2023-03-23T16:45:37;4;3;
44350;PMS5003;62766;62.622;17.912;2023-03-23T16:48:07;4;3;
44350;PMS5003;62766;62.622;17.912;2023-03-23T16:50:37;4;4;
44350;PMS5003;62766;62.622;17.912;2023-03-23T16:53:06;5;4;
44350;PMS5003;62766;62.622;17.912;2023-03-23T16:55:36;2;2;
44350;PMS5003;62766;62.622;17.912;2023-03-23T16:58:06;4;4;
44350;PMS5003;62766;62.622;17.912;2023-03-23T17:03:21;4;4;
44350;PMS5003;62766;62.622;17.912;2023-03-23T17:05:50;5;4;
44350;PMS5003;62766;62.622;17.912;2023-03-23T17:08:19;2;2;
44350;PMS5003;62766;62.622;17.912;2023-03-23T17:10:47;3;3;
44350;PMS5003;62766;62.622;17.912;2023-03-23T17:13:15;4;3;